sensor_id;sensor_type;location;lat;lon;timestamp;pressure;altitude;pressure_sealevel;temperature;humidity
55592;BME280;41454;53.396;-1.510;2023-07-31T00:01:09;98952.92;;;13.88;100.00
55592;BME280;41454;53.396;-1.510;2023-07-31T00:03:36;98948.34;;;13.83;100.00
55592;BME280;41454;53.396;-1.510;2023-07-31T00:06:03;98939.60;;;13.61;100.00
55592;BME280;41454;53.396;-1.510;2023-07-31T00:08:31;98944.55;;;13.82;100.00
55592;BME280;41454;53.396;-1.510;2023-07-31T00:10:58;98945.57;;;13.78;100.00
55592;BME280;41454;53.396;-1.510;2023-07-31T00:13:26;98944.31;;;13.73;100.00
55592;BME280;41454;53.396;-1.510;2023-07-31T00:15:53;98939.76;;;13.81;100.00
55592;BME280;41454;53.396;-1.510;2023-07-31T00:18:21;98936.13;;;13.82;100.00
55592;BME280;41454;53.396;-1.510;2023-07-31T00:20:48;98931.93;;;13.96;100.00
55592;BME280;41454;53.396;-1.510;2023-07-31T00:23:16;98928.02;;;13.80;100.00
55592;BME280;41454;53.396;-1.510;2023-07-31T00:25:43;98925.38;;;14.23;100.00
55592;BME280;41454;53.396;-1.510;2023-07-31T00:28:11;98923.08;;;13.52;100.00
55592;BME280;41454;53.396;-1.510;2023-07-31T00:30:39;98919.24;;;13.74;100.00
55592;BME280;41454;53.396;-1.510;2023-07-31T00:33:06;98914.08;;;13.51;100.00
55592;BME280;41454;53.396;-1.510;2023-07-31T00:35:33;98908.70;;;13.86;100.00
55592;BME280;41454;53.396;-1.510;2023-07-31T00:38:01;98910.64;;;13.82;100.00
55592;BME280;41454;53.396;-1.510;2023-07-31T00:40:29;98906.27;;;14.06;100.00
55592;BME280;41454;53.396;-1.510;2023-07-31T00:42:56;98907.46;;;14.59;100.00
55592;BME280;41454;53.396;-1.510;2023-07-31T00:45:24;98904.06;;;14.30;100.00
55592;BME280;41454;53.396;-1.510;2023-07-31T00:47:51;98905.57;;;14.23;100.00
55592;BME280;41454;53.396;-1.510;2023-07-31T00:50:19;98906.80;;;13.99;100.00
55592;BME280;41454;53.396;-1.510;2023-07-31T00:52:46;98906.92;;;14.47;100.00
55592;BME280;41454;53.396;-1.510;2023-07-31T00:55:14;98906.18;;;14.38;100.00
55592;BME280;41454;53.396;-1.510;2023-07-31T00:57:41;98907.25;;;14.41;100.00
55592;BME280;41454;53.396;-1.510;2023-07-31T01:00:10;98903.36;;;14.36;100.00
55592;BME280;41454;53.396;-1.510;2023-07-31T01:02:38;98900.72;;;14.74;100.00
55592;BME280;41454;53.396;-1.510;2023-07-31T01:05:06;98898.68;;;14.84;100.00
55592;BME280;41454;53.396;-1.510;2023-07-31T01:07:48;98899.60;;;14.15;100.00
55592;BME280;41454;53.396;-1.510;2023-07-31T01:10:18;98893.11;;;14.19;100.00
55592;BME280;41454;53.396;-1.510;2023-07-31T01:12:48;98886.39;;;14.16;100.00
55592;BME280;41454;53.396;-1.510;2023-07-31T01:15:17;98884.75;;;14.10;100.00
55592;BME280;41454;53.396;-1.510;2023-07-31T01:17:45;98882.86;;;13.67;100.00
55592;BME280;41454;53.396;-1.510;2023-07-31T01:20:15;98878.55;;;13.70;100.00
55592;BME280;41454;53.396;-1.510;2023-07-31T01:23:00;98874.97;;;13.78;100.00
55592;BME280;41454;53.396;-1.510;2023-07-31T01:25:50;98870.51;;;14.56;100.00
55592;BME280;41454;53.396;-1.510;2023-07-31T01:28:23;98865.56;;;14.06;100.00
55592;BME280;41454;53.396;-1.510;2023-07-31T01:30:54;98862.12;;;13.97;100.00
55592;BME280;41454;53.396;-1.510;2023-07-31T01:33:22;98860.13;;;14.56;100.00
55592;BME280;41454;53.396;-1.510;2023-07-31T01:35:51;98858.43;;;14.23;100.00
55592;BME280;41454;53.396;-1.510;2023-07-31T01:38:21;98855.43;;;14.20;100.00
55592;BME280;41454;53.396;-1.510;2023-07-31T01:40:51;98852.87;;;14.19;100.00
55592;BME280;41454;53.396;-1.510;2023-07-31T01:43:19;98852.14;;;13.96;100.00
55592;BME280;41454;53.396;-1.510;2023-07-31T01:45:46;98847.13;;;14.23;100.00
55592;BME280;41454;53.396;-1.510;2023-07-31T01:48:13;98846.23;;;13.90;100.00
55592;BME280;41454;53.396;-1.510;2023-07-31T01:50:40;98842.95;;;13.86;100.00
55592;BME280;41454;53.396;-1.510;2023-07-31T01:53:08;98836.33;;;13.81;100.00
55592;BME280;41454;53.396;-1.510;2023-07-31T01:55:34;98829.69;;;13.89;100.00
55592;BME280;41454;53.396;-1.510;2023-07-31T01:58:01;98828.53;;;13.59;100.00
55592;BME280;41454;53.396;-1.510;2023-07-31T02:00:28;98828.92;;;13.73;100.00
55592;BME280;41454;53.396;-1.510;2023-07-31T02:02:55;98825.41;;;13.78;100.00
55592;BME280;41454;53.396;-1.510;2023-07-31T02:05:23;98832.21;;;13.85;100.00
55592;BME280;41454;53.396;-1.510;2023-07-31T02:07:50;98831.82;;;13.55;100.00
55592;BME280;41454;53.396;-1.510;2023-07-31T02:10:18;98832.80;;;13.37;100.00
55592;BME280;41454;53.396;-1.510;2023-07-31T02:12:45;98828.62;;;13.80;100.00
55592;BME280;41454;53.396;-1.510;2023-07-31T02:15:12;98825.70;;;13.61;100.00
55592;BME280;41454;53.396;-1.510;2023-07-31T02:17:40;98826.05;;;13.82;100.00
55592;BME280;41454;53.396;-1.510;2023-07-31T02:20:09;98824.96;;;13.90;100.00
55592;BME280;41454;53.396;-1.510;2023-07-31T02:22:35;98819.38;;;14.00;100.00
55592;BME280;41454;53.396;-1.510;2023-07-31T02:25:02;98815.11;;;13.93;100.00
55592;BME280;41454;53.396;-1.510;2023-07-31T02:27:30;98812.67;;;14.07;100.00
55592;BME280;41454;53.396;-1.510;2023-07-31T02:29:57;98806.40;;;14.20;100.00
55592;BME280;41454;53.396;-1.510;2023-07-31T02:32:25;98808.34;;;14.12;100.00
55592;BME280;41454;53.396;-1.510;2023-07-31T02:34:52;98804.75;;;14.07;100.00
55592;BME280;41454;53.396;-1.510;2023-07-31T02:37:20;98801.64;;;14.34;100.00
55592;BME280;41454;53.396;-1.510;2023-07-31T02:39:47;98798.16;;;14.22;100.00
55592;BME280;41454;53.396;-1.510;2023-07-31T02:42:15;98798.27;;;14.37;100.00
55592;BME280;41454;53.396;-1.510;2023-07-31T02:44:42;98798.78;;;14.44;100.00
55592;BME280;41454;53.396;-1.510;2023-07-31T02:47:11;98800.32;;;14.76;100.00
55592;BME280;41454;53.396;-1.510;2023-07-31T02:49:38;98794.53;;;14.78;100.00
55592;BME280;41454;53.396;-1.510;2023-07-31T02:52:06;98796.48;;;14.28;100.00
55592;BME280;41454;53.396;-1.510;2023-07-31T02:54:33;98797.95;;;14.79;100.00
55592;BME280;41454;53.396;-1.510;2023-07-31T02:57:00;98795.97;;;15.07;100.00
55592;BME280;41454;53.396;-1.510;2023-07-31T02:59:28;98796.24;;;15.11;100.00
55592;BME280;41454;53.396;-1.510;2023-07-31T03:01:55;98793.59;;;15.20;100.00
55592;BME280;41454;53.396;-1.510;2023-07-31T03:04:23;98791.13;;;14.97;100.00
55592;BME280;41454;53.396;-1.510;2023-07-31T03:06:50;98787.22;;;15.54;100.00
55592;BME280;41454;53.396;-1.510;2023-07-31T03:09:17;98788.98;;;15.38;100.00
55592;BME280;41454;53.396;-1.510;2023-07-31T03:11:44;98787.89;;;15.73;100.00
55592;BME280;41454;53.396;-1.510;2023-07-31T03:14:11;98785.46;;;15.89;100.00
55592;BME280;41454;53.396;-1.510;2023-07-31T03:16:39;98784.76;;;16.24;100.00
55592;BME280;41454;53.396;-1.510;2023-07-31T03:19:06;98785.08;;;15.81;100.00
55592;BME280;41454;53.396;-1.510;2023-07-31T03:21:34;98778.91;;;15.89;100.00
55592;BME280;41454;53.396;-1.510;2023-07-31T03:24:00;98776.50;;;15.25;100.00
55592;BME280;41454;53.396;-1.510;2023-07-31T03:26:27;98779.56;;;15.38;100.00
55592;BME280;41454;53.396;-1.510;2023-07-31T03:28:54;98777.17;;;15.00;100.00
55592;BME280;41454;53.396;-1.510;2023-07-31T03:31:20;98780.99;;;14.99;100.00
55592;BME280;41454;53.396;-1.510;2023-07-31T03:33:47;98783.09;;;14.94;100.00
55592;BME280;41454;53.396;-1.510;2023-07-31T03:36:14;98780.28;;;14.39;100.00
55592;BME280;41454;53.396;-1.510;2023-07-31T03:38:41;98776.56;;;14.42;100.00
55592;BME280;41454;53.396;-1.510;2023-07-31T03:41:09;98777.18;;;14.64;100.00
55592;BME280;41454;53.396;-1.510;2023-07-31T03:43:36;98775.30;;;14.74;100.00
55592;BME280;41454;53.396;-1.510;2023-07-31T03:46:04;98776.72;;;14.53;100.00
55592;BME280;41454;53.396;-1.510;2023-07-31T03:48:31;98775.77;;;14.29;100.00
55592;BME280;41454;53.396;-1.510;2023-07-31T03:50:58;98774.79;;;14.11;100.00
55592;BME280;41454;53.396;-1.510;2023-07-31T03:53:25;98777.03;;;14.64;100.00
55592;BME280;41454;53.396;-1.510;2023-07-31T03:55:52;98778.26;;;14.67;100.00
55592;BME280;41454;53.396;-1.510;2023-07-31T03:58:18;98779.59;;;14.87;100.00
55592;BME280;41454;53.396;-1.510;2023-07-31T04:00:46;98778.65;;;14.74;100.00
55592;BME280;41454;53.396;-1.510;2023-07-31T04:03:14;98776.19;;;14.77;100.00
55592;BME280;41454;53.396;-1.510;2023-07-31T04:05:41;98772.46;;;15.20;100.00
55592;BME280;41454;53.396;-1.510;2023-07-31T04:08:07;98766.14;;;15.04;100.00
55592;BME280;41454;53.396;-1.510;2023-07-31T04:10:35;98760.89;;;14.66;100.00
55592;BME280;41454;53.396;-1.510;2023-07-31T04:13:01;98756.55;;;14.50;100.00
55592;BME280;41454;53.396;-1.510;2023-07-31T04:15:28;98752.37;;;14.00;100.00
55592;BME280;41454;53.396;-1.510;2023-07-31T04:17:55;98758.77;;;13.94;100.00
55592;BME280;41454;53.396;-1.510;2023-07-31T04:20:22;98755.48;;;13.96;100.00
55592;BME280;41454;53.396;-1.510;2023-07-31T04:22:50;98755.78;;;13.96;100.00
55592;BME280;41454;53.396;-1.510;2023-07-31T04:25:17;98748.88;;;13.72;100.00
55592;BME280;41454;53.396;-1.510;2023-07-31T04:27:44;98751.83;;;13.57;100.00
55592;BME280;41454;53.396;-1.510;2023-07-31T04:30:12;98748.23;;;13.51;100.00
55592;BME280;41454;53.396;-1.510;2023-07-31T04:32:39;98748.90;;;13.73;100.00
55592;BME280;41454;53.396;-1.510;2023-07-31T04:35:07;98751.41;;;13.92;100.00
55592;BME280;41454;53.396;-1.510;2023-07-31T04:37:34;98756.99;;;14.22;100.00
55592;BME280;41454;53.396;-1.510;2023-07-31T04:40:01;98754.01;;;13.71;100.00
55592;BME280;41454;53.396;-1.510;2023-07-31T04:42:28;98757.36;;;13.33;100.00
55592;BME280;41454;53.396;-1.510;2023-07-31T04:44:55;98755.27;;;13.58;100.00
55592;BME280;41454;53.396;-1.510;2023-07-31T04:47:23;98759.10;;;13.70;100.00
55592;BME280;41454;53.396;-1.510;2023-07-31T04:49:50;98755.91;;;13.60;100.00
55592;BME280;41454;53.396;-1.510;2023-07-31T04:52:18;98757.71;;;13.78;100.00
55592;BME280;41454;53.396;-1.510;2023-07-31T04:54:45;98760.48;;;13.73;100.00
55592;BME280;41454;53.396;-1.510;2023-07-31T04:57:13;98761.76;;;13.41;100.00
55592;BME280;41454;53.396;-1.510;2023-07-31T04:59:40;98760.69;;;13.64;100.00
55592;BME280;41454;53.396;-1.510;2023-07-31T05:02:08;98761.58;;;13.71;100.00
55592;BME280;41454;53.396;-1.510;2023-07-31T05:04:35;98764.60;;;13.81;100.00
55592;BME280;41454;53.396;-1.510;2023-07-31T05:07:03;98764.20;;;14.07;100.00
55592;BME280;41454;53.396;-1.510;2023-07-31T05:09:30;98759.83;;;13.90;100.00
55592;BME280;41454;53.396;-1.510;2023-07-31T05:11:57;98761.23;;;14.08;100.00
55592;BME280;41454;53.396;-1.510;2023-07-31T05:14:26;98768.93;;;13.49;100.00
55592;BME280;41454;53.396;-1.510;2023-07-31T05:16:53;98775.57;;;13.70;100.00
55592;BME280;41454;53.396;-1.510;2023-07-31T05:19:19;98779.93;;;13.89;100.00
55592;BME280;41454;53.396;-1.510;2023-07-31T05:21:47;98778.33;;;13.83;100.00
55592;BME280;41454;53.396;-1.510;2023-07-31T05:24:14;98780.23;;;13.76;100.00
55592;BME280;41454;53.396;-1.510;2023-07-31T05:26:42;98785.72;;;14.21;100.00
55592;BME280;41454;53.396;-1.510;2023-07-31T05:29:08;98784.34;;;13.83;100.00
55592;BME280;41454;53.396;-1.510;2023-07-31T05:31:35;98780.05;;;14.42;100.00
55592;BME280;41454;53.396;-1.510;2023-07-31T05:34:02;98786.32;;;14.20;100.00
55592;BME280;41454;53.396;-1.510;2023-07-31T05:36:29;98783.47;;;14.26;100.00
55592;BME280;41454;53.396;-1.510;2023-07-31T05:38:56;98785.91;;;14.29;100.00
55592;BME280;41454;53.396;-1.510;2023-07-31T05:41:23;98785.03;;;14.33;100.00
55592;BME280;41454;53.396;-1.510;2023-07-31T05:43:51;98783.51;;;14.02;100.00
55592;BME280;41454;53.396;-1.510;2023-07-31T05:46:18;98783.03;;;14.16;100.00
55592;BME280;41454;53.396;-1.510;2023-07-31T05:48:46;98785.27;;;14.37;100.00
55592;BME280;41454;53.396;-1.510;2023-07-31T05:51:12;98779.59;;;14.29;100.00
55592;BME280;41454;53.396;-1.510;2023-07-31T05:53:39;98775.72;;;14.51;100.00
55592;BME280;41454;53.396;-1.510;2023-07-31T05:56:06;98776.61;;;14.84;100.00
55592;BME280;41454;53.396;-1.510;2023-07-31T05:58:33;98773.86;;;14.51;100.00
55592;BME280;41454;53.396;-1.510;2023-07-31T06:01:01;98774.98;;;14.04;100.00
55592;BME280;41454;53.396;-1.510;2023-07-31T06:03:28;98769.24;;;14.55;100.00
55592;BME280;41454;53.396;-1.510;2023-07-31T06:05:55;98768.87;;;14.24;100.00
55592;BME280;41454;53.396;-1.510;2023-07-31T06:08:23;98762.84;;;14.70;100.00
55592;BME280;41454;53.396;-1.510;2023-07-31T06:10:50;98756.97;;;14.47;100.00
55592;BME280;41454;53.396;-1.510;2023-07-31T06:13:18;98756.72;;;14.53;100.00
55592;BME280;41454;53.396;-1.510;2023-07-31T06:15:45;98753.23;;;14.72;100.00
55592;BME280;41454;53.396;-1.510;2023-07-31T06:18:12;98746.62;;;14.89;100.00
55592;BME280;41454;53.396;-1.510;2023-07-31T06:20:39;98745.57;;;14.83;100.00
55592;BME280;41454;53.396;-1.510;2023-07-31T06:23:23;98742.73;;;14.96;100.00
55592;BME280;41454;53.396;-1.510;2023-07-31T06:25:50;98745.17;;;14.48;100.00
55592;BME280;41454;53.396;-1.510;2023-07-31T06:28:38;98742.66;;;14.54;100.00
55592;BME280;41454;53.396;-1.510;2023-07-31T06:31:05;98739.28;;;13.86;100.00
55592;BME280;41454;53.396;-1.510;2023-07-31T06:33:32;98746.60;;;14.84;100.00
55592;BME280;41454;53.396;-1.510;2023-07-31T06:39:52;98743.37;;;14.64;100.00
55592;BME280;41454;53.396;-1.510;2023-07-31T06:43:09;98744.15;;;13.99;100.00
55592;BME280;41454;53.396;-1.510;2023-07-31T06:45:52;98744.22;;;14.28;100.00
55592;BME280;41454;53.396;-1.510;2023-07-31T06:48:59;98741.96;;;14.27;100.00
55592;BME280;41454;53.396;-1.510;2023-07-31T06:51:27;98739.95;;;14.35;100.00
55592;BME280;41454;53.396;-1.510;2023-07-31T06:53:54;98741.73;;;14.44;100.00
55592;BME280;41454;53.396;-1.510;2023-07-31T06:56:21;98747.36;;;14.12;100.00
55592;BME280;41454;53.396;-1.510;2023-07-31T06:58:49;98759.49;;;14.10;100.00
55592;BME280;41454;53.396;-1.510;2023-07-31T07:01:16;98752.91;;;14.57;100.00
55592;BME280;41454;53.396;-1.510;2023-07-31T07:03:43;98757.01;;;14.54;100.00
55592;BME280;41454;53.396;-1.510;2023-07-31T07:06:10;98765.60;;;14.16;100.00
55592;BME280;41454;53.396;-1.510;2023-07-31T07:08:37;98757.26;;;13.98;100.00
55592;BME280;41454;53.396;-1.510;2023-07-31T07:11:05;98764.42;;;13.70;100.00
55592;BME280;41454;53.396;-1.510;2023-07-31T07:13:32;98767.03;;;13.91;100.00
55592;BME280;41454;53.396;-1.510;2023-07-31T07:15:59;98751.68;;;13.85;100.00
55592;BME280;41454;53.396;-1.510;2023-07-31T07:18:27;98755.06;;;14.04;100.00
55592;BME280;41454;53.396;-1.510;2023-07-31T07:20:54;98756.15;;;13.89;100.00
55592;BME280;41454;53.396;-1.510;2023-07-31T07:23:22;98764.50;;;14.07;100.00
55592;BME280;41454;53.396;-1.510;2023-07-31T07:25:48;98755.50;;;13.92;100.00
55592;BME280;41454;53.396;-1.510;2023-07-31T07:28:15;98754.46;;;13.57;100.00
55592;BME280;41454;53.396;-1.510;2023-07-31T07:30:43;98740.72;;;13.38;100.00
55592;BME280;41454;53.396;-1.510;2023-07-31T07:33:10;98737.73;;;13.72;100.00
55592;BME280;41454;53.396;-1.510;2023-07-31T07:35:37;98727.10;;;13.75;100.00
55592;BME280;41454;53.396;-1.510;2023-07-31T07:38:05;98724.90;;;13.55;100.00
55592;BME280;41454;53.396;-1.510;2023-07-31T07:40:33;98721.79;;;13.85;100.00
55592;BME280;41454;53.396;-1.510;2023-07-31T07:43:05;98718.52;;;13.88;100.00
55592;BME280;41454;53.396;-1.510;2023-07-31T07:45:32;98721.48;;;14.03;100.00
55592;BME280;41454;53.396;-1.510;2023-07-31T07:48:00;98722.11;;;14.14;100.00
55592;BME280;41454;53.396;-1.510;2023-07-31T07:50:27;98728.09;;;14.33;100.00
55592;BME280;41454;53.396;-1.510;2023-07-31T07:52:55;98729.15;;;14.25;100.00
55592;BME280;41454;53.396;-1.510;2023-07-31T07:55:22;98730.37;;;13.90;100.00
55592;BME280;41454;53.396;-1.510;2023-07-31T07:57:49;98724.35;;;13.76;100.00
55592;BME280;41454;53.396;-1.510;2023-07-31T08:00:16;98715.06;;;13.51;100.00
55592;BME280;41454;53.396;-1.510;2023-07-31T08:02:43;98714.77;;;13.85;100.00
55592;BME280;41454;53.396;-1.510;2023-07-31T08:05:11;98708.17;;;13.80;100.00
55592;BME280;41454;53.396;-1.510;2023-07-31T08:07:38;98714.35;;;13.65;100.00
55592;BME280;41454;53.396;-1.510;2023-07-31T08:10:06;98728.02;;;13.82;100.00
55592;BME280;41454;53.396;-1.510;2023-07-31T08:12:34;98738.33;;;13.99;100.00
55592;BME280;41454;53.396;-1.510;2023-07-31T08:15:01;98734.36;;;13.96;100.00
55592;BME280;41454;53.396;-1.510;2023-07-31T08:17:29;98735.47;;;14.27;100.00
55592;BME280;41454;53.396;-1.510;2023-07-31T08:19:56;98729.93;;;13.89;100.00
55592;BME280;41454;53.396;-1.510;2023-07-31T08:22:23;98728.52;;;14.05;100.00
55592;BME280;41454;53.396;-1.510;2023-07-31T08:24:49;98723.36;;;14.36;100.00
55592;BME280;41454;53.396;-1.510;2023-07-31T08:27:17;98721.92;;;14.36;100.00
55592;BME280;41454;53.396;-1.510;2023-07-31T08:29:44;98717.32;;;14.44;100.00
55592;BME280;41454;53.396;-1.510;2023-07-31T08:32:12;98716.50;;;14.02;100.00
55592;BME280;41454;53.396;-1.510;2023-07-31T08:34:38;98708.16;;;14.66;100.00
55592;BME280;41454;53.396;-1.510;2023-07-31T08:37:05;98708.68;;;14.23;100.00
55592;BME280;41454;53.396;-1.510;2023-07-31T08:39:33;98712.06;;;14.09;100.00
55592;BME280;41454;53.396;-1.510;2023-07-31T08:41:59;98712.90;;;14.29;100.00
55592;BME280;41454;53.396;-1.510;2023-07-31T08:44:27;98715.97;;;14.49;100.00
55592;BME280;41454;53.396;-1.510;2023-07-31T08:46:57;98714.69;;;14.10;100.00
55592;BME280;41454;53.396;-1.510;2023-07-31T08:49:24;98719.81;;;13.89;100.00
55592;BME280;41454;53.396;-1.510;2023-07-31T08:51:53;98720.96;;;14.03;100.00
55592;BME280;41454;53.396;-1.510;2023-07-31T08:54:21;98719.78;;;14.49;100.00
55592;BME280;41454;53.396;-1.510;2023-07-31T08:56:50;98718.76;;;14.61;100.00
55592;BME280;41454;53.396;-1.510;2023-07-31T08:59:20;98726.70;;;14.31;100.00
55592;BME280;41454;53.396;-1.510;2023-07-31T09:01:50;98731.03;;;14.29;100.00
55592;BME280;41454;53.396;-1.510;2023-07-31T09:04:20;98723.87;;;14.42;100.00
55592;BME280;41454;53.396;-1.510;2023-07-31T09:06:48;98722.28;;;14.66;100.00
55592;BME280;41454;53.396;-1.510;2023-07-31T09:09:16;98724.89;;;14.28;100.00
55592;BME280;41454;53.396;-1.510;2023-07-31T09:11:43;98713.59;;;14.69;100.00
55592;BME280;41454;53.396;-1.510;2023-07-31T09:14:10;98718.06;;;14.98;100.00
55592;BME280;41454;53.396;-1.510;2023-07-31T09:16:52;98712.69;;;14.81;100.00
55592;BME280;41454;53.396;-1.510;2023-07-31T09:19:25;98709.24;;;14.79;100.00
55592;BME280;41454;53.396;-1.510;2023-07-31T09:21:58;98712.73;;;14.98;100.00
55592;BME280;41454;53.396;-1.510;2023-07-31T09:24:25;98708.23;;;14.79;100.00
55592;BME280;41454;53.396;-1.510;2023-07-31T09:26:54;98707.68;;;14.76;100.00
55592;BME280;41454;53.396;-1.510;2023-07-31T09:29:24;98704.03;;;14.57;100.00
55592;BME280;41454;53.396;-1.510;2023-07-31T09:31:51;98707.95;;;14.27;100.00
55592;BME280;41454;53.396;-1.510;2023-07-31T09:34:20;98713.65;;;14.57;100.00
55592;BME280;41454;53.396;-1.510;2023-07-31T09:36:49;98725.94;;;14.45;100.00
55592;BME280;41454;53.396;-1.510;2023-07-31T09:39:18;98724.48;;;14.31;100.00
55592;BME280;41454;53.396;-1.510;2023-07-31T09:41:47;98715.19;;;14.43;100.00
55592;BME280;41454;53.396;-1.510;2023-07-31T09:44:14;98698.12;;;14.52;100.00
55592;BME280;41454;53.396;-1.510;2023-07-31T09:46:41;98700.40;;;14.61;100.00
55592;BME280;41454;53.396;-1.510;2023-07-31T09:49:09;98708.59;;;14.58;100.00
55592;BME280;41454;53.396;-1.510;2023-07-31T09:51:37;98711.34;;;14.43;100.00
55592;BME280;41454;53.396;-1.510;2023-07-31T09:54:11;98710.00;;;13.87;100.00
55592;BME280;41454;53.396;-1.510;2023-07-31T09:56:42;98716.37;;;14.38;100.00
55592;BME280;41454;53.396;-1.510;2023-07-31T09:59:12;98713.32;;;14.11;100.00
55592;BME280;41454;53.396;-1.510;2023-07-31T10:01:42;98711.41;;;14.49;100.00
55592;BME280;41454;53.396;-1.510;2023-07-31T10:04:10;98706.97;;;13.97;100.00
55592;BME280;41454;53.396;-1.510;2023-07-31T10:06:39;98705.83;;;14.46;100.00
55592;BME280;41454;53.396;-1.510;2023-07-31T10:09:08;98705.02;;;14.02;100.00
55592;BME280;41454;53.396;-1.510;2023-07-31T10:11:40;98707.03;;;14.13;100.00
55592;BME280;41454;53.396;-1.510;2023-07-31T10:14:09;98706.51;;;14.27;100.00
55592;BME280;41454;53.396;-1.510;2023-07-31T10:16:38;98710.45;;;14.02;100.00
55592;BME280;41454;53.396;-1.510;2023-07-31T10:19:05;98717.35;;;14.11;100.00
55592;BME280;41454;53.396;-1.510;2023-07-31T10:21:34;98724.07;;;13.93;100.00
55592;BME280;41454;53.396;-1.510;2023-07-31T10:24:04;98724.26;;;13.81;100.00
55592;BME280;41454;53.396;-1.510;2023-07-31T10:26:32;98725.23;;;13.86;100.00
55592;BME280;41454;53.396;-1.510;2023-07-31T10:28:59;98727.90;;;14.02;100.00
55592;BME280;41454;53.396;-1.510;2023-07-31T10:31:27;98711.35;;;13.85;100.00
55592;BME280;41454;53.396;-1.510;2023-07-31T10:33:55;98716.03;;;14.09;100.00
55592;BME280;41454;53.396;-1.510;2023-07-31T10:36:23;98706.44;;;14.36;100.00
55592;BME280;41454;53.396;-1.510;2023-07-31T10:38:50;98693.83;;;14.16;100.00
55592;BME280;41454;53.396;-1.510;2023-07-31T10:41:18;98687.55;;;14.17;100.00
55592;BME280;41454;53.396;-1.510;2023-07-31T10:43:46;98685.58;;;14.47;100.00
55592;BME280;41454;53.396;-1.510;2023-07-31T10:46:14;98683.54;;;14.34;100.00
55592;BME280;41454;53.396;-1.510;2023-07-31T10:48:42;98674.71;;;14.38;100.00
55592;BME280;41454;53.396;-1.510;2023-07-31T10:51:11;98674.04;;;14.81;100.00
55592;BME280;41454;53.396;-1.510;2023-07-31T10:53:39;98670.18;;;14.69;100.00
55592;BME280;41454;53.396;-1.510;2023-07-31T10:56:08;98674.77;;;14.69;100.00
55592;BME280;41454;53.396;-1.510;2023-07-31T10:58:36;98680.06;;;15.02;100.00
55592;BME280;41454;53.396;-1.510;2023-07-31T11:01:08;98693.47;;;14.81;100.00
55592;BME280;41454;53.396;-1.510;2023-07-31T11:03:45;98689.59;;;14.42;100.00
55592;BME280;41454;53.396;-1.510;2023-07-31T11:06:14;98676.81;;;14.28;100.00
55592;BME280;41454;53.396;-1.510;2023-07-31T11:08:42;98670.37;;;14.31;100.00
55592;BME280;41454;53.396;-1.510;2023-07-31T11:11:11;98671.43;;;14.12;100.00
55592;BME280;41454;53.396;-1.510;2023-07-31T11:13:43;98674.21;;;14.18;100.00
55592;BME280;41454;53.396;-1.510;2023-07-31T11:16:13;98664.35;;;13.82;100.00
55592;BME280;41454;53.396;-1.510;2023-07-31T11:18:44;98666.78;;;13.63;100.00
55592;BME280;41454;53.396;-1.510;2023-07-31T11:21:13;98686.39;;;13.97;100.00
55592;BME280;41454;53.396;-1.510;2023-07-31T11:23:44;98697.88;;;13.95;100.00
55592;BME280;41454;53.396;-1.510;2023-07-31T11:26:13;98696.42;;;14.34;100.00
55592;BME280;41454;53.396;-1.510;2023-07-31T11:28:41;98708.25;;;14.17;100.00
55592;BME280;41454;53.396;-1.510;2023-07-31T11:31:09;98693.78;;;13.82;100.00
55592;BME280;41454;53.396;-1.510;2023-07-31T11:33:37;98690.53;;;14.01;100.00
55592;BME280;41454;53.396;-1.510;2023-07-31T11:36:04;98691.72;;;13.79;100.00
55592;BME280;41454;53.396;-1.510;2023-07-31T11:38:33;98689.25;;;14.21;100.00
55592;BME280;41454;53.396;-1.510;2023-07-31T11:41:02;98695.08;;;14.14;100.00
55592;BME280;41454;53.396;-1.510;2023-07-31T11:43:31;98698.83;;;14.07;100.00
55592;BME280;41454;53.396;-1.510;2023-07-31T11:45:59;98693.72;;;14.34;100.00
55592;BME280;41454;53.396;-1.510;2023-07-31T11:48:28;98707.28;;;14.11;100.00
55592;BME280;41454;53.396;-1.510;2023-07-31T11:50:58;98710.80;;;14.00;100.00
55592;BME280;41454;53.396;-1.510;2023-07-31T11:53:28;98705.60;;;13.52;100.00
55592;BME280;41454;53.396;-1.510;2023-07-31T11:55:58;98703.32;;;13.62;100.00
55592;BME280;41454;53.396;-1.510;2023-07-31T11:58:26;98693.81;;;13.80;100.00
55592;BME280;41454;53.396;-1.510;2023-07-31T12:00:55;98676.55;;;14.14;100.00
55592;BME280;41454;53.396;-1.510;2023-07-31T12:03:23;98680.22;;;13.75;100.00
55592;BME280;41454;53.396;-1.510;2023-07-31T12:05:51;98679.10;;;13.56;100.00
55592;BME280;41454;53.396;-1.510;2023-07-31T12:08:21;98675.46;;;13.28;100.00
55592;BME280;41454;53.396;-1.510;2023-07-31T12:10:50;98670.67;;;13.49;100.00
55592;BME280;41454;53.396;-1.510;2023-07-31T12:13:21;98675.61;;;13.65;100.00
55592;BME280;41454;53.396;-1.510;2023-07-31T12:15:53;98658.97;;;13.64;100.00
55592;BME280;41454;53.396;-1.510;2023-07-31T12:18:20;98639.82;;;14.20;100.00
55592;BME280;41454;53.396;-1.510;2023-07-31T12:20:49;98637.41;;;14.26;100.00
55592;BME280;41454;53.396;-1.510;2023-07-31T12:23:18;98651.11;;;14.31;100.00
55592;BME280;41454;53.396;-1.510;2023-07-31T12:25:46;98648.72;;;14.43;100.00
55592;BME280;41454;53.396;-1.510;2023-07-31T12:28:14;98650.45;;;14.29;100.00
55592;BME280;41454;53.396;-1.510;2023-07-31T12:30:41;98664.16;;;13.97;100.00
55592;BME280;41454;53.396;-1.510;2023-07-31T12:33:14;98676.00;;;14.12;100.00
55592;BME280;41454;53.396;-1.510;2023-07-31T12:35:43;98665.61;;;13.83;100.00
55592;BME280;41454;53.396;-1.510;2023-07-31T12:38:11;98649.78;;;13.64;100.00
55592;BME280;41454;53.396;-1.510;2023-07-31T12:40:39;98643.58;;;13.31;100.00
55592;BME280;41454;53.396;-1.510;2023-07-31T12:43:06;98645.44;;;13.47;100.00
55592;BME280;41454;53.396;-1.510;2023-07-31T12:45:34;98651.55;;;13.46;100.00
55592;BME280;41454;53.396;-1.510;2023-07-31T12:48:02;98667.96;;;13.66;100.00
55592;BME280;41454;53.396;-1.510;2023-07-31T12:50:30;98666.89;;;13.60;100.00